sensor_id;sensor_type;location;lat;lon;timestamp;P1;durP1;ratioP1;P2;durP2;ratioP2
9700;SDS011;4889;48.620;7.892;2023-06-24T00:02:22;0.60;;;0.30;;
9700;SDS011;4889;48.620;7.892;2023-06-24T00:04:49;0.60;;;0.20;;
9700;SDS011;4889;48.620;7.892;2023-06-24T00:07:14;0.60;;;0.20;;
9700;SDS011;4889;48.620;7.892;2023-06-24T00:09:39;0.60;;;0.20;;
9700;SDS011;4889;48.620;7.892;2023-06-24T00:12:05;0.60;;;0.20;;
9700;SDS011;4889;48.620;7.892;2023-06-24T00:14:30;0.60;;;0.20;;
9700;SDS011;4889;48.620;7.892;2023-06-24T00:16:57;0.60;;;0.30;;
9700;SDS011;4889;48.620;7.892;2023-06-24T00:19:23;0.60;;;0.30;;
9700;SDS011;4889;48.620;7.892;2023-06-24T00:21:48;0.60;;;0.30;;
9700;SDS011;4889;48.620;7.892;2023-06-24T00:24:16;0.60;;;0.20;;
9700;SDS011;4889;48.620;7.892;2023-06-24T00:26:42;0.60;;;0.30;;
9700;SDS011;4889;48.620;7.892;2023-06-24T00:29:07;0.60;;;0.20;;
9700;SDS011;4889;48.620;7.892;2023-06-24T00:31:33;0.60;;;0.20;;
9700;SDS011;4889;48.620;7.892;2023-06-24T00:33:58;9.83;;;7.63;;
9700;SDS011;4889;48.620;7.892;2023-06-24T00:36:23;0.60;;;0.30;;
9700;SDS011;4889;48.620;7.892;2023-06-24T00:38:49;0.60;;;0.30;;
9700;SDS011;4889;48.620;7.892;2023-06-24T00:41:14;0.60;;;0.20;;
9700;SDS011;4889;48.620;7.892;2023-06-24T00:43:41;0.60;;;0.30;;
9700;SDS011;4889;48.620;7.892;2023-06-24T00:46:06;0.60;;;0.20;;
9700;SDS011;4889;48.620;7.892;2023-06-24T00:48:31;0.60;;;0.30;;
9700;SDS011;4889;48.620;7.892;2023-06-24T00:50:58;0.60;;;0.20;;
9700;SDS011;4889;48.620;7.892;2023-06-24T00:53:23;0.60;;;0.20;;
9700;SDS011;4889;48.620;7.892;2023-06-24T00:55:50;0.60;;;0.30;;
9700;SDS011;4889;48.620;7.892;2023-06-24T00:58:15;0.60;;;0.20;;
9700;SDS011;4889;48.620;7.892;2023-06-24T01:00:44;0.60;;;0.30;;
9700;SDS011;4889;48.620;7.892;2023-06-24T01:03:11;0.60;;;0.27;;
9700;SDS011;4889;48.620;7.892;2023-06-24T01:05:42;0.60;;;0.30;;
9700;SDS011;4889;48.620;7.892;2023-06-24T01:08:08;0.60;;;0.30;;
9700;SDS011;4889;48.620;7.892;2023-06-24T01:10:34;0.60;;;0.20;;
9700;SDS011;4889;48.620;7.892;2023-06-24T01:12:59;0.60;;;0.20;;
9700;SDS011;4889;48.620;7.892;2023-06-24T01:15:25;0.60;;;0.23;;
9700;SDS011;4889;48.620;7.892;2023-06-24T01:17:59;0.60;;;0.20;;
9700;SDS011;4889;48.620;7.892;2023-06-24T01:36:10;0.60;;;0.20;;
9700;SDS011;4889;48.620;7.892;2023-06-24T01:38:39;0.60;;;0.23;;
9700;SDS011;4889;48.620;7.892;2023-06-24T01:41:05;0.60;;;0.20;;
9700;SDS011;4889;48.620;7.892;2023-06-24T01:43:31;0.60;;;0.30;;
9700;SDS011;4889;48.620;7.892;2023-06-24T01:45:57;0.60;;;0.20;;
9700;SDS011;4889;48.620;7.892;2023-06-24T01:48:23;0.60;;;0.20;;
9700;SDS011;4889;48.620;7.892;2023-06-24T01:50:51;0.60;;;0.30;;
9700;SDS011;4889;48.620;7.892;2023-06-24T01:53:20;0.60;;;0.20;;
9700;SDS011;4889;48.620;7.892;2023-06-24T01:55:45;0.60;;;0.30;;
9700;SDS011;4889;48.620;7.892;2023-06-24T01:58:11;0.60;;;0.30;;
9700;SDS011;4889;48.620;7.892;2023-06-24T02:00:36;0.60;;;0.20;;
9700;SDS011;4889;48.620;7.892;2023-06-24T02:03:03;0.60;;;0.30;;
9700;SDS011;4889;48.620;7.892;2023-06-24T02:05:29;0.60;;;0.20;;
9700;SDS011;4889;48.620;7.892;2023-06-24T02:07:55;0.60;;;0.30;;
9700;SDS011;4889;48.620;7.892;2023-06-24T02:10:21;0.60;;;0.20;;
9700;SDS011;4889;48.620;7.892;2023-06-24T02:12:49;0.60;;;0.30;;
9700;SDS011;4889;48.620;7.892;2023-06-24T02:15:15;0.60;;;0.20;;
9700;SDS011;4889;48.620;7.892;2023-06-24T02:17:41;0.60;;;0.20;;
9700;SDS011;4889;48.620;7.892;2023-06-24T02:20:07;0.60;;;0.20;;
9700;SDS011;4889;48.620;7.892;2023-06-24T02:22:34;0.60;;;0.20;;
9700;SDS011;4889;48.620;7.892;2023-06-24T02:25:00;0.60;;;0.30;;
9700;SDS011;4889;48.620;7.892;2023-06-24T02:27:25;0.60;;;0.20;;
9700;SDS011;4889;48.620;7.892;2023-06-24T02:29:51;0.60;;;0.20;;
9700;SDS011;4889;48.620;7.892;2023-06-24T02:32:16;0.60;;;0.40;;
9700;SDS011;4889;48.620;7.892;2023-06-24T02:35:01;0.60;;;0.20;;
9700;SDS011;4889;48.620;7.892;2023-06-24T02:37:47;0.60;;;0.20;;
9700;SDS011;4889;48.620;7.892;2023-06-24T02:40:12;0.60;;;0.30;;
9700;SDS011;4889;48.620;7.892;2023-06-24T02:42:38;0.60;;;0.20;;
9700;SDS011;4889;48.620;7.892;2023-06-24T02:45:03;0.60;;;0.20;;
9700;SDS011;4889;48.620;7.892;2023-06-24T02:47:29;0.60;;;0.20;;
9700;SDS011;4889;48.620;7.892;2023-06-24T02:49:54;0.60;;;0.30;;
9700;SDS011;4889;48.620;7.892;2023-06-24T02:52:22;0.60;;;0.30;;
9700;SDS011;4889;48.620;7.892;2023-06-24T02:54:47;0.60;;;0.20;;
9700;SDS011;4889;48.620;7.892;2023-06-24T02:57:13;0.60;;;0.20;;
9700;SDS011;4889;48.620;7.892;2023-06-24T02:59:40;0.60;;;0.20;;
9700;SDS011;4889;48.620;7.892;2023-06-24T03:02:05;0.60;;;0.20;;
9700;SDS011;4889;48.620;7.892;2023-06-24T03:04:31;0.60;;;0.20;;
9700;SDS011;4889;48.620;7.892;2023-06-24T03:06:56;0.60;;;0.30;;
9700;SDS011;4889;48.620;7.892;2023-06-24T03:09:24;0.60;;;0.20;;
9700;SDS011;4889;48.620;7.892;2023-06-24T03:11:49;0.70;;;0.50;;
9700;SDS011;4889;48.620;7.892;2023-06-24T03:14:16;0.60;;;0.20;;
9700;SDS011;4889;48.620;7.892;2023-06-24T03:16:41;0.60;;;0.23;;
9700;SDS011;4889;48.620;7.892;2023-06-24T03:19:06;0.60;;;0.20;;
9700;SDS011;4889;48.620;7.892;2023-06-24T03:21:31;0.60;;;0.27;;
9700;SDS011;4889;48.620;7.892;2023-06-24T03:23:57;0.60;;;0.20;;
9700;SDS011;4889;48.620;7.892;2023-06-24T03:26:24;0.60;;;0.20;;
9700;SDS011;4889;48.620;7.892;2023-06-24T03:28:49;0.60;;;0.20;;
9700;SDS011;4889;48.620;7.892;2023-06-24T03:31:15;0.60;;;0.30;;
9700;SDS011;4889;48.620;7.892;2023-06-24T03:33:43;0.60;;;0.20;;
9700;SDS011;4889;48.620;7.892;2023-06-24T03:36:10;0.60;;;0.30;;
9700;SDS011;4889;48.620;7.892;2023-06-24T03:38:35;0.60;;;0.20;;
9700;SDS011;4889;48.620;7.892;2023-06-24T03:41:00;0.60;;;0.20;;
9700;SDS011;4889;48.620;7.892;2023-06-24T03:43:25;0.60;;;0.20;;
9700;SDS011;4889;48.620;7.892;2023-06-24T03:45:50;0.60;;;0.20;;
9700;SDS011;4889;48.620;7.892;2023-06-24T03:48:16;0.60;;;0.30;;
9700;SDS011;4889;48.620;7.892;2023-06-24T03:50:41;0.60;;;0.23;;
9700;SDS011;4889;48.620;7.892;2023-06-24T03:53:06;0.60;;;0.20;;
9700;SDS011;4889;48.620;7.892;2023-06-24T03:55:31;0.60;;;0.20;;
9700;SDS011;4889;48.620;7.892;2023-06-24T03:57:57;0.60;;;0.20;;
9700;SDS011;4889;48.620;7.892;2023-06-24T04:00:22;0.60;;;0.30;;
9700;SDS011;4889;48.620;7.892;2023-06-24T04:02:48;0.60;;;0.20;;
9700;SDS011;4889;48.620;7.892;2023-06-24T04:05:13;0.60;;;0.20;;
9700;SDS011;4889;48.620;7.892;2023-06-24T04:07:38;0.60;;;0.20;;
9700;SDS011;4889;48.620;7.892;2023-06-24T04:10:04;0.60;;;0.20;;
9700;SDS011;4889;48.620;7.892;2023-06-24T04:12:33;0.60;;;0.20;;
9700;SDS011;4889;48.620;7.892;2023-06-24T04:14:58;0.60;;;0.20;;
9700;SDS011;4889;48.620;7.892;2023-06-24T04:17:24;0.60;;;0.20;;
9700;SDS011;4889;48.620;7.892;2023-06-24T04:19:49;0.60;;;0.20;;
9700;SDS011;4889;48.620;7.892;2023-06-24T04:22:14;0.60;;;0.30;;
9700;SDS011;4889;48.620;7.892;2023-06-24T04:24:39;0.60;;;0.20;;
9700;SDS011;4889;48.620;7.892;2023-06-24T04:27:07;0.60;;;0.20;;
9700;SDS011;4889;48.620;7.892;2023-06-24T04:29:32;0.60;;;0.30;;
9700;SDS011;4889;48.620;7.892;2023-06-24T04:31:57;0.60;;;0.20;;
9700;SDS011;4889;48.620;7.892;2023-06-24T04:34:22;0.60;;;0.30;;
9700;SDS011;4889;48.620;7.892;2023-06-24T04:36:48;0.60;;;0.20;;
9700;SDS011;4889;48.620;7.892;2023-06-24T04:39:13;0.60;;;0.20;;
9700;SDS011;4889;48.620;7.892;2023-06-24T04:41:38;0.60;;;0.20;;
9700;SDS011;4889;48.620;7.892;2023-06-24T04:44:03;0.60;;;0.20;;
9700;SDS011;4889;48.620;7.892;2023-06-24T04:46:30;0.60;;;0.20;;
9700;SDS011;4889;48.620;7.892;2023-06-24T04:48:57;0.60;;;0.30;;
9700;SDS011;4889;48.620;7.892;2023-06-24T04:51:22;0.60;;;0.20;;
9700;SDS011;4889;48.620;7.892;2023-06-24T04:53:48;0.60;;;0.20;;
9700;SDS011;4889;48.620;7.892;2023-06-24T04:56:13;0.70;;;0.60;;
9700;SDS011;4889;48.620;7.892;2023-06-24T04:58:38;0.60;;;0.30;;
9700;SDS011;4889;48.620;7.892;2023-06-24T05:01:04;0.60;;;0.20;;
9700;SDS011;4889;48.620;7.892;2023-06-24T05:03:29;0.60;;;0.30;;
9700;SDS011;4889;48.620;7.892;2023-06-24T05:05:54;0.60;;;0.20;;
9700;SDS011;4889;48.620;7.892;2023-06-24T05:08:20;0.60;;;0.30;;
9700;SDS011;4889;48.620;7.892;2023-06-24T05:10:45;0.60;;;0.30;;
9700;SDS011;4889;48.620;7.892;2023-06-24T05:13:10;0.60;;;0.20;;
9700;SDS011;4889;48.620;7.892;2023-06-24T05:15:35;0.60;;;0.20;;
9700;SDS011;4889;48.620;7.892;2023-06-24T05:18:00;0.60;;;0.20;;
9700;SDS011;4889;48.620;7.892;2023-06-24T05:20:26;0.60;;;0.20;;
9700;SDS011;4889;48.620;7.892;2023-06-24T05:22:51;0.60;;;0.20;;
9700;SDS011;4889;48.620;7.892;2023-06-24T05:25:16;0.60;;;0.30;;
9700;SDS011;4889;48.620;7.892;2023-06-24T05:27:42;0.60;;;0.20;;
9700;SDS011;4889;48.620;7.892;2023-06-24T05:30:09;0.60;;;0.30;;
9700;SDS011;4889;48.620;7.892;2023-06-24T05:32:34;0.60;;;0.20;;
9700;SDS011;4889;48.620;7.892;2023-06-24T05:34:59;0.60;;;0.20;;
9700;SDS011;4889;48.620;7.892;2023-06-24T05:37:25;0.60;;;0.20;;
9700;SDS011;4889;48.620;7.892;2023-06-24T05:39:50;0.60;;;0.20;;
9700;SDS011;4889;48.620;7.892;2023-06-24T05:42:15;0.60;;;0.30;;
9700;SDS011;4889;48.620;7.892;2023-06-24T05:44:41;0.60;;;0.20;;
9700;SDS011;4889;48.620;7.892;2023-06-24T05:47:06;0.60;;;0.20;;
9700;SDS011;4889;48.620;7.892;2023-06-24T05:49:32;0.60;;;0.20;;
9700;SDS011;4889;48.620;7.892;2023-06-24T05:51:57;0.60;;;0.20;;
9700;SDS011;4889;48.620;7.892;2023-06-24T05:54:23;0.60;;;0.23;;
9700;SDS011;4889;48.620;7.892;2023-06-24T05:56:48;0.60;;;0.30;;
9700;SDS011;4889;48.620;7.892;2023-06-24T05:59:13;0.60;;;0.20;;
9700;SDS011;4889;48.620;7.892;2023-06-24T06:01:38;1.00;;;0.70;;
9700;SDS011;4889;48.620;7.892;2023-06-24T06:04:04;0.60;;;0.20;;
9700;SDS011;4889;48.620;7.892;2023-06-24T06:06:29;0.60;;;0.30;;
9700;SDS011;4889;48.620;7.892;2023-06-24T06:08:54;0.60;;;0.20;;
9700;SDS011;4889;48.620;7.892;2023-06-24T06:11:19;0.60;;;0.20;;
9700;SDS011;4889;48.620;7.892;2023-06-24T06:13:45;0.67;;;0.47;;
9700;SDS011;4889;48.620;7.892;2023-06-24T06:16:10;1.07;;;1.00;;
9700;SDS011;4889;48.620;7.892;2023-06-24T06:18:35;0.60;;;0.30;;
9700;SDS011;4889;48.620;7.892;2023-06-24T06:21:00;0.60;;;0.30;;
9700;SDS011;4889;48.620;7.892;2023-06-24T06:23:25;1.17;;;1.07;;
9700;SDS011;4889;48.620;7.892;2023-06-24T06:25:52;0.60;;;0.27;;
9700;SDS011;4889;48.620;7.892;2023-06-24T06:28:17;0.90;;;0.77;;
9700;SDS011;4889;48.620;7.892;2023-06-24T06:30:43;0.60;;;0.20;;
9700;SDS011;4889;48.620;7.892;2023-06-24T06:33:08;0.80;;;0.70;;
9700;SDS011;4889;48.620;7.892;2023-06-24T06:35:33;0.60;;;0.20;;
9700;SDS011;4889;48.620;7.892;2023-06-24T06:37:58;0.60;;;0.30;;
9700;SDS011;4889;48.620;7.892;2023-06-24T06:40:24;0.60;;;0.30;;
9700;SDS011;4889;48.620;7.892;2023-06-24T06:42:49;0.60;;;0.20;;
9700;SDS011;4889;48.620;7.892;2023-06-24T06:45:14;0.60;;;0.30;;
9700;SDS011;4889;48.620;7.892;2023-06-24T06:47:39;0.90;;;0.40;;
9700;SDS011;4889;48.620;7.892;2023-06-24T06:50:05;0.70;;;0.50;;
9700;SDS011;4889;48.620;7.892;2023-06-24T06:52:30;0.60;;;0.27;;
9700;SDS011;4889;48.620;7.892;2023-06-24T06:54:56;0.80;;;0.63;;
9700;SDS011;4889;48.620;7.892;2023-06-24T06:57:22;0.60;;;0.20;;
9700;SDS011;4889;48.620;7.892;2023-06-24T06:59:47;0.60;;;0.20;;
9700;SDS011;4889;48.620;7.892;2023-06-24T07:02:14;1.57;;;0.83;;
9700;SDS011;4889;48.620;7.892;2023-06-24T07:04:40;0.60;;;0.20;;
9700;SDS011;4889;48.620;7.892;2023-06-24T07:07:05;0.60;;;0.30;;
9700;SDS011;4889;48.620;7.892;2023-06-24T07:09:30;0.60;;;0.20;;
9700;SDS011;4889;48.620;7.892;2023-06-24T07:11:55;1.67;;;0.97;;
9700;SDS011;4889;48.620;7.892;2023-06-24T07:14:20;0.60;;;0.30;;
9700;SDS011;4889;48.620;7.892;2023-06-24T07:16:46;2.60;;;0.77;;
9700;SDS011;4889;48.620;7.892;2023-06-24T07:19:11;1.33;;;0.60;;
9700;SDS011;4889;48.620;7.892;2023-06-24T07:21:37;0.60;;;0.30;;
9700;SDS011;4889;48.620;7.892;2023-06-24T07:24:02;0.87;;;0.40;;
9700;SDS011;4889;48.620;7.892;2023-06-24T07:26:28;0.60;;;0.30;;
9700;SDS011;4889;48.620;7.892;2023-06-24T07:28:56;0.60;;;0.20;;
9700;SDS011;4889;48.620;7.892;2023-06-24T07:31:23;0.60;;;0.30;;
9700;SDS011;4889;48.620;7.892;2023-06-24T07:33:49;0.60;;;0.20;;
9700;SDS011;4889;48.620;7.892;2023-06-24T07:36:14;0.60;;;0.20;;
9700;SDS011;4889;48.620;7.892;2023-06-24T07:38:39;0.60;;;0.30;;
9700;SDS011;4889;48.620;7.892;2023-06-24T07:41:04;0.60;;;0.30;;
9700;SDS011;4889;48.620;7.892;2023-06-24T07:43:29;0.70;;;0.40;;
9700;SDS011;4889;48.620;7.892;2023-06-24T07:45:55;0.60;;;0.30;;
9700;SDS011;4889;48.620;7.892;2023-06-24T07:48:20;0.60;;;0.30;;
9700;SDS011;4889;48.620;7.892;2023-06-24T07:50:46;0.60;;;0.30;;
9700;SDS011;4889;48.620;7.892;2023-06-24T07:53:11;0.60;;;0.30;;
9700;SDS011;4889;48.620;7.892;2023-06-24T07:55:36;0.60;;;0.20;;
9700;SDS011;4889;48.620;7.892;2023-06-24T07:58:02;0.60;;;0.30;;
9700;SDS011;4889;48.620;7.892;2023-06-24T08:00:28;0.60;;;0.30;;
9700;SDS011;4889;48.620;7.892;2023-06-24T08:02:53;0.60;;;0.40;;
9700;SDS011;4889;48.620;7.892;2023-06-24T08:05:20;0.60;;;0.30;;
9700;SDS011;4889;48.620;7.892;2023-06-24T08:07:45;0.60;;;0.30;;
9700;SDS011;4889;48.620;7.892;2023-06-24T08:10:11;0.70;;;0.60;;
9700;SDS011;4889;48.620;7.892;2023-06-24T08:12:36;0.60;;;0.30;;
9700;SDS011;4889;48.620;7.892;2023-06-24T08:15:02;0.60;;;0.30;;
9700;SDS011;4889;48.620;7.892;2023-06-24T08:17:27;0.68;;;0.30;;
9700;SDS011;4889;48.620;7.892;2023-06-24T08:19:52;0.70;;;0.30;;
9700;SDS011;4889;48.620;7.892;2023-06-24T08:22:18;0.70;;;0.30;;
9700;SDS011;4889;48.620;7.892;2023-06-24T08:24:43;0.70;;;0.30;;
9700;SDS011;4889;48.620;7.892;2023-06-24T08:27:08;0.90;;;0.30;;
9700;SDS011;4889;48.620;7.892;2023-06-24T08:29:33;1.00;;;0.30;;
9700;SDS011;4889;48.620;7.892;2023-06-24T08:31:59;1.10;;;0.30;;
9700;SDS011;4889;48.620;7.892;2023-06-24T08:34:24;2.70;;;0.50;;
9700;SDS011;4889;48.620;7.892;2023-06-24T08:36:49;3.17;;;0.30;;
9700;SDS011;4889;48.620;7.892;2023-06-24T08:39:14;2.70;;;0.30;;
9700;SDS011;4889;48.620;7.892;2023-06-24T08:41:39;3.67;;;0.88;;
9700;SDS011;4889;48.620;7.892;2023-06-24T08:44:05;3.33;;;0.30;;
9700;SDS011;4889;48.620;7.892;2023-06-24T08:46:30;3.53;;;0.30;;
9700;SDS011;4889;48.620;7.892;2023-06-24T08:49:00;5.50;;;0.60;;
9700;SDS011;4889;48.620;7.892;2023-06-24T08:51:27;5.13;;;0.52;;
9700;SDS011;4889;48.620;7.892;2023-06-24T08:53:54;5.05;;;0.30;;
9700;SDS011;4889;48.620;7.892;2023-06-24T08:56:20;5.28;;;0.30;;
9700;SDS011;4889;48.620;7.892;2023-06-24T08:58:45;5.35;;;0.30;;
9700;SDS011;4889;48.620;7.892;2023-06-24T09:01:10;5.45;;;0.50;;
9700;SDS011;4889;48.620;7.892;2023-06-24T09:03:36;6.20;;;1.75;;
9700;SDS011;4889;48.620;7.892;2023-06-24T09:06:01;5.00;;;0.30;;
9700;SDS011;4889;48.620;7.892;2023-06-24T09:08:27;4.85;;;0.30;;
9700;SDS011;4889;48.620;7.892;2023-06-24T09:10:52;5.18;;;0.60;;
9700;SDS011;4889;48.620;7.892;2023-06-24T09:13:18;4.43;;;0.30;;
9700;SDS011;4889;48.620;7.892;2023-06-24T09:15:43;4.60;;;0.68;;
9700;SDS011;4889;48.620;7.892;2023-06-24T09:18:08;4.45;;;0.50;;
9700;SDS011;4889;48.620;7.892;2023-06-24T09:20:35;4.43;;;0.47;;
9700;SDS011;4889;48.620;7.892;2023-06-24T09:23:05;4.30;;;0.35;;
9700;SDS011;4889;48.620;7.892;2023-06-24T09:25:31;4.25;;;0.30;;
9700;SDS011;4889;48.620;7.892;2023-06-24T09:27:59;4.28;;;0.30;;
9700;SDS011;4889;48.620;7.892;2023-06-24T09:30:25;4.25;;;0.30;;
9700;SDS011;4889;48.620;7.892;2023-06-24T09:32:51;4.10;;;0.40;;
9700;SDS011;4889;48.620;7.892;2023-06-24T09:35:20;3.78;;;0.30;;
9700;SDS011;4889;48.620;7.892;2023-06-24T09:37:52;3.85;;;0.30;;
9700;SDS011;4889;48.620;7.892;2023-06-24T09:40:18;3.78;;;0.30;;
9700;SDS011;4889;48.620;7.892;2023-06-24T09:42:48;3.80;;;0.30;;
9700;SDS011;4889;48.620;7.892;2023-06-24T09:45:13;5.30;;;1.42;;
9700;SDS011;4889;48.620;7.892;2023-06-24T09:47:38;3.80;;;0.30;;
9700;SDS011;4889;48.620;7.892;2023-06-24T09:50:03;4.00;;;0.73;;
9700;SDS011;4889;48.620;7.892;2023-06-24T09:52:29;3.60;;;0.30;;
9700;SDS011;4889;48.620;7.892;2023-06-24T09:54:56;3.60;;;0.30;;
9700;SDS011;4889;48.620;7.892;2023-06-24T09:57:27;3.58;;;0.30;;
9700;SDS011;4889;48.620;7.892;2023-06-24T09:59:54;3.60;;;0.30;;
9700;SDS011;4889;48.620;7.892;2023-06-24T10:02:19;3.50;;;0.30;;
9700;SDS011;4889;48.620;7.892;2023-06-24T10:04:45;3.50;;;0.30;;
9700;SDS011;4889;48.620;7.892;2023-06-24T10:07:11;3.40;;;0.30;;
9700;SDS011;4889;48.620;7.892;2023-06-24T10:09:38;3.92;;;0.85;;
9700;SDS011;4889;48.620;7.892;2023-06-24T10:12:03;4.50;;;0.60;;
9700;SDS011;4889;48.620;7.892;2023-06-24T10:14:29;3.50;;;0.40;;
9700;SDS011;4889;48.620;7.892;2023-06-24T10:17:00;3.40;;;0.30;;
9700;SDS011;4889;48.620;7.892;2023-06-24T10:19:26;3.45;;;0.30;;
9700;SDS011;4889;48.620;7.892;2023-06-24T10:21:58;3.40;;;0.30;;
9700;SDS011;4889;48.620;7.892;2023-06-24T10:24:33;4.68;;;1.38;;
9700;SDS011;4889;48.620;7.892;2023-06-24T10:27:00;3.22;;;0.50;;
9700;SDS011;4889;48.620;7.892;2023-06-24T10:29:36;3.40;;;0.30;;
9700;SDS011;4889;48.620;7.892;2023-06-24T10:32:10;3.13;;;0.30;;
9700;SDS011;4889;48.620;7.892;2023-06-24T10:34:44;4.00;;;0.50;;
9700;SDS011;4889;48.620;7.892;2023-06-24T10:42:45;3.27;;;0.97;;
9700;SDS011;4889;48.620;7.892;2023-06-24T10:44:46;4.45;;;0.88;;
9700;SDS011;4889;48.620;7.892;2023-06-24T10:47:11;2.80;;;0.40;;
9700;SDS011;4889;48.620;7.892;2023-06-24T10:49:36;2.60;;;0.30;;
9700;SDS011;4889;48.620;7.892;2023-06-24T10:52:02;3.20;;;0.65;;
9700;SDS011;4889;48.620;7.892;2023-06-24T10:54:27;2.40;;;0.30;;
9700;SDS011;4889;48.620;7.892;2023-06-24T10:56:52;2.30;;;0.30;;
9700;SDS011;4889;48.620;7.892;2023-06-24T10:59:18;2.47;;;0.30;;
9700;SDS011;4889;48.620;7.892;2023-06-24T11:01:52;2.50;;;0.30;;
9700;SDS011;4889;48.620;7.892;2023-06-24T11:04:18;2.40;;;0.30;;
9700;SDS011;4889;48.620;7.892;2023-06-24T11:06:56;3.17;;;0.87;;
9700;SDS011;4889;48.620;7.892;2023-06-24T11:09:21;2.40;;;0.30;;
9700;SDS011;4889;48.620;7.892;2023-06-24T11:11:46;2.38;;;0.30;;
9700;SDS011;4889;48.620;7.892;2023-06-24T11:14:12;2.50;;;0.30;;
9700;SDS011;4889;48.620;7.892;2023-06-24T11:16:37;2.33;;;0.30;;
9700;SDS011;4889;48.620;7.892;2023-06-24T11:19:04;2.30;;;0.30;;
9700;SDS011;4889;48.620;7.892;2023-06-24T11:21:30;2.30;;;0.47;;
9700;SDS011;4889;48.620;7.892;2023-06-24T11:24:02;2.20;;;0.40;;
9700;SDS011;4889;48.620;7.892;2023-06-24T11:26:27;2.30;;;0.40;;
9700;SDS011;4889;48.620;7.892;2023-06-24T11:28:52;2.10;;;0.30;;
9700;SDS011;4889;48.620;7.892;2023-06-24T11:31:18;2.20;;;0.30;;
9700;SDS011;4889;48.620;7.892;2023-06-24T11:33:47;1.88;;;0.40;;
9700;SDS011;4889;48.620;7.892;2023-06-24T11:36:12;2.20;;;1.20;;
9700;SDS011;4889;48.620;7.892;2023-06-24T11:38:41;2.10;;;0.50;;
9700;SDS011;4889;48.620;7.892;2023-06-24T11:41:06;1.90;;;0.30;;
9700;SDS011;4889;48.620;7.892;2023-06-24T11:43:32;1.70;;;0.30;;
9700;SDS011;4889;48.620;7.892;2023-06-24T11:45:58;1.70;;;0.30;;
9700;SDS011;4889;48.620;7.892;2023-06-24T11:48:27;1.60;;;0.30;;
9700;SDS011;4889;48.620;7.892;2023-06-24T11:50:55;1.70;;;0.40;;
9700;SDS011;4889;48.620;7.892;2023-06-24T11:53:30;1.90;;;0.68;;
9700;SDS011;4889;48.620;7.892;2023-06-24T11:55:58;1.55;;;0.30;;
9700;SDS011;4889;48.620;7.892;2023-06-24T11:58:25;1.58;;;0.30;;
9700;SDS011;4889;48.620;7.892;2023-06-24T12:00:50;1.60;;;0.30;;
9700;SDS011;4889;48.620;7.892;2023-06-24T12:03:17;1.60;;;0.30;;
9700;SDS011;4889;48.620;7.892;2023-06-24T12:05:42;1.80;;;0.50;;
9700;SDS011;4889;48.620;7.892;2023-06-24T12:08:12;13.68;;;0.80;;
9700;SDS011;4889;48.620;7.892;2023-06-24T12:10:40;3.35;;;0.68;;
9700;SDS011;4889;48.620;7.892;2023-06-24T12:13:05;1.57;;;0.37;;
9700;SDS011;4889;48.620;7.892;2023-06-24T12:15:33;1.50;;;0.30;;
9700;SDS011;4889;48.620;7.892;2023-06-24T12:17:59;1.50;;;0.30;;
9700;SDS011;4889;48.620;7.892;2023-06-24T12:20:25;1.60;;;0.40;;
9700;SDS011;4889;48.620;7.892;2023-06-24T12:22:50;1.60;;;0.55;;
9700;SDS011;4889;48.620;7.892;2023-06-24T12:25:16;1.40;;;0.30;;
9700;SDS011;4889;48.620;7.892;2023-06-24T12:27:41;1.40;;;0.30;;
9700;SDS011;4889;48.620;7.892;2023-06-24T12:30:07;1.40;;;0.30;;
9700;SDS011;4889;48.620;7.892;2023-06-24T12:32:33;1.20;;;0.30;;
9700;SDS011;4889;48.620;7.892;2023-06-24T12:34:58;1.40;;;0.30;;
9700;SDS011;4889;48.620;7.892;2023-06-24T12:37:23;1.40;;;0.30;;
9700;SDS011;4889;48.620;7.892;2023-06-24T12:39:48;2.10;;;0.70;;
9700;SDS011;4889;48.620;7.892;2023-06-24T12:42:16;1.40;;;0.30;;
9700;SDS011;4889;48.620;7.892;2023-06-24T12:44:41;1.30;;;0.30;;
9700;SDS011;4889;48.620;7.892;2023-06-24T12:47:06;1.23;;;0.30;;
9700;SDS011;4889;48.620;7.892;2023-06-24T12:49:31;1.30;;;0.30;;
9700;SDS011;4889;48.620;7.892;2023-06-24T12:51:57;2.03;;;0.63;;
9700;SDS011;4889;48.620;7.892;2023-06-24T12:54:22;1.20;;;0.30;;
9700;SDS011;4889;48.620;7.892;2023-06-24T12:56:47;1.30;;;0.50;;
9700;SDS011;4889;48.620;7.892;2023-06-24T12:59:12;1.20;;;0.30;;
9700;SDS011;4889;48.620;7.892;2023-06-24T13:01:37;1.27;;;0.30;;
9700;SDS011;4889;48.620;7.892;2023-06-24T13:04:03;1.20;;;0.43;;
9700;SDS011;4889;48.620;7.892;2023-06-24T13:06:28;1.10;;;0.30;;
9700;SDS011;4889;48.620;7.892;2023-06-24T13:08:53;1.17;;;0.33;;
9700;SDS011;4889;48.620;7.892;2023-06-24T13:11:19;1.13;;;0.30;;
9700;SDS011;4889;48.620;7.892;2023-06-24T13:13:44;1.10;;;0.30;;
9700;SDS011;4889;48.620;7.892;2023-06-24T13:16:09;0.90;;;0.30;;
9700;SDS011;4889;48.620;7.892;2023-06-24T13:18:34;1.00;;;0.30;;
9700;SDS011;4889;48.620;7.892;2023-06-24T13:20:59;1.23;;;0.63;;
9700;SDS011;4889;48.620;7.892;2023-06-24T13:23:25;1.20;;;0.50;;
9700;SDS011;4889;48.620;7.892;2023-06-24T13:25:50;1.00;;;0.30;;
9700;SDS011;4889;48.620;7.892;2023-06-24T13:28:15;1.00;;;0.30;;
9700;SDS011;4889;48.620;7.892;2023-06-24T13:30:40;0.90;;;0.30;;
9700;SDS011;4889;48.620;7.892;2023-06-24T13:33:06;0.90;;;0.30;;
9700;SDS011;4889;48.620;7.892;2023-06-24T13:35:31;0.90;;;0.30;;
9700;SDS011;4889;48.620;7.892;2023-06-24T13:37:56;0.90;;;0.30;;
9700;SDS011;4889;48.620;7.892;2023-06-24T13:40:23;0.90;;;0.30;;
9700;SDS011;4889;48.620;7.892;2023-06-24T13:42:49;0.90;;;0.30;;
9700;SDS011;4889;48.620;7.892;2023-06-24T13:45:14;1.00;;;0.40;;
9700;SDS011;4889;48.620;7.892;2023-06-24T13:47:40;0.90;;;0.30;;
9700;SDS011;4889;48.620;7.892;2023-06-24T13:50:05;0.90;;;0.30;;
9700;SDS011;4889;48.620;7.892;2023-06-24T13:52:30;0.90;;;0.30;;
9700;SDS011;4889;48.620;7.892;2023-06-24T13:54:55;1.33;;;0.67;;
9700;SDS011;4889;48.620;7.892;2023-06-24T13:57:21;0.90;;;0.40;;
9700;SDS011;4889;48.620;7.892;2023-06-24T13:59:46;1.00;;;0.40;;
9700;SDS011;4889;48.620;7.892;2023-06-24T14:02:11;0.90;;;0.50;;
9700;SDS011;4889;48.620;7.892;2023-06-24T14:04:37;0.90;;;0.30;;
9700;SDS011;4889;48.620;7.892;2023-06-24T14:07:03;0.90;;;0.50;;
9700;SDS011;4889;48.620;7.892;2023-06-24T14:09:29;0.90;;;0.47;;
9700;SDS011;4889;48.620;7.892;2023-06-24T14:11:54;0.83;;;0.30;;
9700;SDS011;4889;48.620;7.892;2023-06-24T14:14:20;0.85;;;0.30;;
9700;SDS011;4889;48.620;7.892;2023-06-24T14:16:46;0.95;;;0.52;;
9700;SDS011;4889;48.620;7.892;2023-06-24T14:19:11;0.90;;;0.50;;
9700;SDS011;4889;48.620;7.892;2023-06-24T14:21:36;0.90;;;0.40;;
9700;SDS011;4889;48.620;7.892;2023-06-24T14:24:03;0.85;;;0.43;;
9700;SDS011;4889;48.620;7.892;2023-06-24T14:26:28;0.85;;;0.30;;
9700;SDS011;4889;48.620;7.892;2023-06-24T14:28:53;2.75;;;1.20;;
9700;SDS011;4889;48.620;7.892;2023-06-24T14:31:19;0.90;;;0.40;;
9700;SDS011;4889;48.620;7.892;2023-06-24T14:33:44;0.80;;;0.30;;
9700;SDS011;4889;48.620;7.892;2023-06-24T14:36:09;0.80;;;0.30;;
9700;SDS011;4889;48.620;7.892;2023-06-24T14:38:34;0.80;;;0.30;;
9700;SDS011;4889;48.620;7.892;2023-06-24T14:41:00;0.83;;;0.33;;
9700;SDS011;4889;48.620;7.892;2023-06-24T14:43:25;0.80;;;0.30;;
9700;SDS011;4889;48.620;7.892;2023-06-24T14:45:51;0.90;;;0.30;;
9700;SDS011;4889;48.620;7.892;2023-06-24T14:48:16;0.82;;;0.30;;
9700;SDS011;4889;48.620;7.892;2023-06-24T14:50:41;1.00;;;0.50;;
9700;SDS011;4889;48.620;7.892;2023-06-24T14:53:06;2.70;;;1.23;;
9700;SDS011;4889;48.620;7.892;2023-06-24T14:55:32;0.80;;;0.30;;
9700;SDS011;4889;48.620;7.892;2023-06-24T14:57:57;0.83;;;0.37;;
9700;SDS011;4889;48.620;7.892;2023-06-24T15:00:22;0.80;;;0.30;;
9700;SDS011;4889;48.620;7.892;2023-06-24T15:02:48;1.63;;;1.30;;
9700;SDS011;4889;48.620;7.892;2023-06-24T15:05:13;0.80;;;0.30;;
9700;SDS011;4889;48.620;7.892;2023-06-24T15:07:38;0.80;;;0.40;;
9700;SDS011;4889;48.620;7.892;2023-06-24T15:10:04;0.80;;;0.30;;
9700;SDS011;4889;48.620;7.892;2023-06-24T15:12:29;0.90;;;0.30;;
9700;SDS011;4889;48.620;7.892;2023-06-24T15:14:55;0.90;;;0.30;;
9700;SDS011;4889;48.620;7.892;2023-06-24T15:17:20;1.35;;;0.85;;
9700;SDS011;4889;48.620;7.892;2023-06-24T15:19:46;0.80;;;0.30;;
9700;SDS011;4889;48.620;7.892;2023-06-24T15:22:11;0.90;;;0.30;;
9700;SDS011;4889;48.620;7.892;2023-06-24T15:24:37;1.98;;;1.05;;
9700;SDS011;4889;48.620;7.892;2023-06-24T15:27:02;0.90;;;0.30;;
9700;SDS011;4889;48.620;7.892;2023-06-24T15:29:27;0.90;;;0.40;;